sensor_id;sensor_type;location;lat;lon;timestamp;P1;durP1;ratioP1;P2;durP2;ratioP2
49678;SDS011;35570;48.218;16.326;2023-10-08T00:01:07;5.43;;;2.90;;
49678;SDS011;35570;48.218;16.326;2023-10-08T00:03:39;6.50;;;3.10;;
49678;SDS011;35570;48.218;16.326;2023-10-08T00:06:07;5.88;;;2.70;;
49678;SDS011;35570;48.218;16.326;2023-10-08T00:08:38;4.93;;;2.85;;
49678;SDS011;35570;48.218;16.326;2023-10-08T00:11:06;5.22;;;2.60;;
49678;SDS011;35570;48.218;16.326;2023-10-08T00:13:35;7.20;;;3.10;;
49678;SDS011;35570;48.218;16.326;2023-10-08T00:16:08;7.38;;;2.90;;
49678;SDS011;35570;48.218;16.326;2023-10-08T00:18:35;9.02;;;2.67;;
49678;SDS011;35570;48.218;16.326;2023-10-08T00:21:03;6.35;;;3.00;;
49678;SDS011;35570;48.218;16.326;2023-10-08T00:23:37;5.95;;;3.05;;
49678;SDS011;35570;48.218;16.326;2023-10-08T00:26:17;4.88;;;2.72;;
49678;SDS011;35570;48.218;16.326;2023-10-08T00:28:59;5.88;;;2.55;;
49678;SDS011;35570;48.218;16.326;2023-10-08T00:31:31;10.30;;;3.28;;
49678;SDS011;35570;48.218;16.326;2023-10-08T00:34:03;6.32;;;2.85;;
49678;SDS011;35570;48.218;16.326;2023-10-08T00:36:30;6.68;;;2.55;;
49678;SDS011;35570;48.218;16.326;2023-10-08T00:38:56;5.80;;;2.60;;
49678;SDS011;35570;48.218;16.326;2023-10-08T00:41:26;8.10;;;2.90;;
49678;SDS011;35570;48.218;16.326;2023-10-08T00:43:58;6.43;;;3.10;;
49678;SDS011;35570;48.218;16.326;2023-10-08T00:46:32;5.63;;;2.50;;
49678;SDS011;35570;48.218;16.326;2023-10-08T00:49:07;6.97;;;2.90;;
49678;SDS011;35570;48.218;16.326;2023-10-08T00:51:51;7.45;;;3.00;;
49678;SDS011;35570;48.218;16.326;2023-10-08T00:54:39;6.15;;;2.88;;
49678;SDS011;35570;48.218;16.326;2023-10-08T00:57:22;6.65;;;2.85;;
49678;SDS011;35570;48.218;16.326;2023-10-08T01:02:55;7.68;;;3.00;;
49678;SDS011;35570;48.218;16.326;2023-10-08T01:05:27;6.63;;;3.08;;
49678;SDS011;35570;48.218;16.326;2023-10-08T01:08:08;8.48;;;2.80;;
49678;SDS011;35570;48.218;16.326;2023-10-08T01:10:37;4.60;;;2.90;;
49678;SDS011;35570;48.218;16.326;2023-10-08T01:13:08;5.88;;;2.67;;
49678;SDS011;35570;48.218;16.326;2023-10-08T01:15:40;7.30;;;3.05;;
49678;SDS011;35570;48.218;16.326;2023-10-08T01:18:10;7.25;;;2.90;;
49678;SDS011;35570;48.218;16.326;2023-10-08T01:20:49;7.47;;;3.15;;
49678;SDS011;35570;48.218;16.326;2023-10-08T01:23:18;7.13;;;3.10;;
49678;SDS011;35570;48.218;16.326;2023-10-08T01:25:51;6.55;;;2.75;;
49678;SDS011;35570;48.218;16.326;2023-10-08T01:28:37;7.57;;;3.28;;
49678;SDS011;35570;48.218;16.326;2023-10-08T01:31:08;6.35;;;3.08;;
49678;SDS011;35570;48.218;16.326;2023-10-08T01:33:38;4.00;;;2.67;;
49678;SDS011;35570;48.218;16.326;2023-10-08T01:36:15;5.25;;;2.95;;
49678;SDS011;35570;48.218;16.326;2023-10-08T01:38:46;6.15;;;2.75;;
49678;SDS011;35570;48.218;16.326;2023-10-08T01:41:15;7.00;;;2.85;;
49678;SDS011;35570;48.218;16.326;2023-10-08T01:43:47;8.40;;;3.00;;
49678;SDS011;35570;48.218;16.326;2023-10-08T01:46:17;6.65;;;3.08;;
49678;SDS011;35570;48.218;16.326;2023-10-08T01:48:47;8.05;;;3.30;;
49678;SDS011;35570;48.218;16.326;2023-10-08T01:51:24;4.75;;;2.72;;
49678;SDS011;35570;48.218;16.326;2023-10-08T01:54:02;6.00;;;3.10;;
49678;SDS011;35570;48.218;16.326;2023-10-08T01:59:08;6.07;;;2.90;;
49678;SDS011;35570;48.218;16.326;2023-10-08T02:01:36;6.50;;;2.85;;
49678;SDS011;35570;48.218;16.326;2023-10-08T02:04:05;7.88;;;3.15;;
49678;SDS011;35570;48.218;16.326;2023-10-08T02:06:38;5.50;;;2.90;;
49678;SDS011;35570;48.218;16.326;2023-10-08T02:09:05;7.82;;;2.88;;
49678;SDS011;35570;48.218;16.326;2023-10-08T02:11:42;6.55;;;2.70;;
49678;SDS011;35570;48.218;16.326;2023-10-08T02:14:10;5.00;;;2.83;;
49678;SDS011;35570;48.218;16.326;2023-10-08T02:16:40;6.78;;;2.75;;
49678;SDS011;35570;48.218;16.326;2023-10-08T02:19:07;5.63;;;2.80;;
49678;SDS011;35570;48.218;16.326;2023-10-08T02:21:39;5.30;;;2.70;;
49678;SDS011;35570;48.218;16.326;2023-10-08T02:24:07;6.35;;;2.80;;
49678;SDS011;35570;48.218;16.326;2023-10-08T02:26:34;5.20;;;2.72;;
49678;SDS011;35570;48.218;16.326;2023-10-08T02:29:06;5.72;;;3.03;;
49678;SDS011;35570;48.218;16.326;2023-10-08T02:31:44;8.48;;;3.47;;
49678;SDS011;35570;48.218;16.326;2023-10-08T02:34:10;6.57;;;2.85;;
49678;SDS011;35570;48.218;16.326;2023-10-08T02:36:37;7.15;;;2.85;;
49678;SDS011;35570;48.218;16.326;2023-10-08T02:39:05;8.52;;;3.47;;
49678;SDS011;35570;48.218;16.326;2023-10-08T02:41:42;6.22;;;3.08;;
49678;SDS011;35570;48.218;16.326;2023-10-08T02:44:11;6.22;;;2.50;;
49678;SDS011;35570;48.218;16.326;2023-10-08T02:46:42;7.50;;;3.08;;
49678;SDS011;35570;48.218;16.326;2023-10-08T02:49:10;7.03;;;2.58;;
49678;SDS011;35570;48.218;16.326;2023-10-08T02:51:40;7.43;;;3.28;;
49678;SDS011;35570;48.218;16.326;2023-10-08T02:54:09;4.82;;;3.03;;
49678;SDS011;35570;48.218;16.326;2023-10-08T02:56:42;6.20;;;3.08;;
49678;SDS011;35570;48.218;16.326;2023-10-08T02:59:11;9.38;;;3.25;;
49678;SDS011;35570;48.218;16.326;2023-10-08T03:01:39;4.88;;;3.05;;
49678;SDS011;35570;48.218;16.326;2023-10-08T03:04:10;5.03;;;2.85;;
49678;SDS011;35570;48.218;16.326;2023-10-08T03:06:46;6.63;;;3.00;;
49678;SDS011;35570;48.218;16.326;2023-10-08T03:09:17;6.97;;;3.20;;
49678;SDS011;35570;48.218;16.326;2023-10-08T03:11:59;9.48;;;3.22;;
49678;SDS011;35570;48.218;16.326;2023-10-08T03:14:24;4.57;;;3.10;;
49678;SDS011;35570;48.218;16.326;2023-10-08T03:16:52;5.93;;;2.90;;
49678;SDS011;35570;48.218;16.326;2023-10-08T03:19:23;8.00;;;3.03;;
49678;SDS011;35570;48.218;16.326;2023-10-08T03:21:50;7.82;;;2.90;;
49678;SDS011;35570;48.218;16.326;2023-10-08T03:24:17;8.50;;;2.80;;
49678;SDS011;35570;48.218;16.326;2023-10-08T03:27:00;4.82;;;2.45;;
49678;SDS011;35570;48.218;16.326;2023-10-08T03:29:52;9.10;;;3.33;;
49678;SDS011;35570;48.218;16.326;2023-10-08T03:32:19;6.97;;;3.08;;
49678;SDS011;35570;48.218;16.326;2023-10-08T03:34:51;7.55;;;3.00;;
49678;SDS011;35570;48.218;16.326;2023-10-08T03:37:20;9.52;;;2.95;;
49678;SDS011;35570;48.218;16.326;2023-10-08T03:39:54;5.80;;;2.67;;
49678;SDS011;35570;48.218;16.326;2023-10-08T03:42:32;6.78;;;2.97;;
49678;SDS011;35570;48.218;16.326;2023-10-08T03:45:05;6.22;;;3.10;;
49678;SDS011;35570;48.218;16.326;2023-10-08T03:47:43;8.63;;;2.88;;
49678;SDS011;35570;48.218;16.326;2023-10-08T03:50:12;4.97;;;2.60;;
49678;SDS011;35570;48.218;16.326;2023-10-08T03:52:42;7.90;;;3.20;;
49678;SDS011;35570;48.218;16.326;2023-10-08T03:55:16;7.68;;;3.05;;
49678;SDS011;35570;48.218;16.326;2023-10-08T03:57:52;6.57;;;2.85;;
49678;SDS011;35570;48.218;16.326;2023-10-08T04:00:24;6.32;;;2.53;;
49678;SDS011;35570;48.218;16.326;2023-10-08T04:03:08;7.40;;;3.17;;
49678;SDS011;35570;48.218;16.326;2023-10-08T04:05:36;7.65;;;3.28;;
49678;SDS011;35570;48.218;16.326;2023-10-08T04:08:09;6.60;;;3.30;;
49678;SDS011;35570;48.218;16.326;2023-10-08T04:11:00;8.05;;;2.80;;
49678;SDS011;35570;48.218;16.326;2023-10-08T04:13:47;5.82;;;3.25;;
49678;SDS011;35570;48.218;16.326;2023-10-08T04:16:21;9.68;;;3.03;;
49678;SDS011;35570;48.218;16.326;2023-10-08T04:18:47;6.10;;;2.88;;
49678;SDS011;35570;48.218;16.326;2023-10-08T04:21:16;6.93;;;2.83;;
49678;SDS011;35570;48.218;16.326;2023-10-08T04:23:47;8.90;;;3.08;;
49678;SDS011;35570;48.218;16.326;2023-10-08T04:26:17;8.60;;;3.25;;
49678;SDS011;35570;48.218;16.326;2023-10-08T04:28:49;5.53;;;3.15;;
49678;SDS011;35570;48.218;16.326;2023-10-08T04:31:15;8.23;;;2.65;;
49678;SDS011;35570;48.218;16.326;2023-10-08T04:33:43;5.05;;;2.83;;
49678;SDS011;35570;48.218;16.326;2023-10-08T04:36:10;6.95;;;3.05;;
49678;SDS011;35570;48.218;16.326;2023-10-08T04:38:43;9.50;;;3.05;;
49678;SDS011;35570;48.218;16.326;2023-10-08T04:41:11;7.10;;;2.90;;
49678;SDS011;35570;48.218;16.326;2023-10-08T04:43:37;6.57;;;2.63;;
49678;SDS011;35570;48.218;16.326;2023-10-08T04:46:08;5.45;;;2.70;;
49678;SDS011;35570;48.218;16.326;2023-10-08T04:48:47;5.70;;;2.90;;
49678;SDS011;35570;48.218;16.326;2023-10-08T04:51:15;6.40;;;2.80;;
49678;SDS011;35570;48.218;16.326;2023-10-08T04:53:43;5.75;;;3.00;;
49678;SDS011;35570;48.218;16.326;2023-10-08T04:56:11;7.28;;;2.92;;
49678;SDS011;35570;48.218;16.326;2023-10-08T04:58:44;4.90;;;3.17;;
49678;SDS011;35570;48.218;16.326;2023-10-08T05:01:12;7.63;;;2.88;;
49678;SDS011;35570;48.218;16.326;2023-10-08T05:03:45;7.03;;;2.85;;
49678;SDS011;35570;48.218;16.326;2023-10-08T05:06:26;7.40;;;2.83;;
49678;SDS011;35570;48.218;16.326;2023-10-08T05:09:02;6.88;;;2.90;;
49678;SDS011;35570;48.218;16.326;2023-10-08T05:11:44;7.55;;;3.15;;
49678;SDS011;35570;48.218;16.326;2023-10-08T05:14:28;5.45;;;3.10;;
49678;SDS011;35570;48.218;16.326;2023-10-08T05:16:57;6.07;;;2.97;;
49678;SDS011;35570;48.218;16.326;2023-10-08T05:19:47;7.70;;;3.08;;
49678;SDS011;35570;48.218;16.326;2023-10-08T05:22:36;7.75;;;2.88;;
49678;SDS011;35570;48.218;16.326;2023-10-08T05:25:02;9.20;;;3.40;;
49678;SDS011;35570;48.218;16.326;2023-10-08T05:27:53;8.35;;;3.35;;
49678;SDS011;35570;48.218;16.326;2023-10-08T05:30:29;7.28;;;2.92;;
49678;SDS011;35570;48.218;16.326;2023-10-08T05:36:30;7.72;;;3.10;;
49678;SDS011;35570;48.218;16.326;2023-10-08T05:39:21;9.00;;;3.38;;
49678;SDS011;35570;48.218;16.326;2023-10-08T05:42:09;7.32;;;3.50;;
49678;SDS011;35570;48.218;16.326;2023-10-08T05:44:38;7.43;;;3.13;;
49678;SDS011;35570;48.218;16.326;2023-10-08T05:47:26;4.28;;;2.42;;
49678;SDS011;35570;48.218;16.326;2023-10-08T05:49:57;7.30;;;3.00;;
49678;SDS011;35570;48.218;16.326;2023-10-08T05:52:42;7.22;;;3.28;;
49678;SDS011;35570;48.218;16.326;2023-10-08T05:55:30;7.85;;;3.22;;
49678;SDS011;35570;48.218;16.326;2023-10-08T05:58:06;5.80;;;2.77;;
49678;SDS011;35570;48.218;16.326;2023-10-08T06:00:45;7.97;;;3.13;;
49678;SDS011;35570;48.218;16.326;2023-10-08T06:03:27;6.88;;;2.85;;
49678;SDS011;35570;48.218;16.326;2023-10-08T06:06:07;5.60;;;2.95;;
49678;SDS011;35570;48.218;16.326;2023-10-08T06:08:39;8.25;;;2.88;;
49678;SDS011;35570;48.218;16.326;2023-10-08T06:11:17;6.13;;;3.40;;
49678;SDS011;35570;48.218;16.326;2023-10-08T06:14:04;10.32;;;3.10;;
49678;SDS011;35570;48.218;16.326;2023-10-08T06:16:44;9.00;;;3.63;;
49678;SDS011;35570;48.218;16.326;2023-10-08T06:19:12;5.25;;;2.63;;
49678;SDS011;35570;48.218;16.326;2023-10-08T06:21:39;5.60;;;3.10;;
49678;SDS011;35570;48.218;16.326;2023-10-08T06:24:06;6.45;;;2.85;;
49678;SDS011;35570;48.218;16.326;2023-10-08T06:26:34;11.80;;;3.20;;
49678;SDS011;35570;48.218;16.326;2023-10-08T06:29:13;10.23;;;3.15;;
49678;SDS011;35570;48.218;16.326;2023-10-08T06:31:53;4.85;;;3.05;;
49678;SDS011;35570;48.218;16.326;2023-10-08T06:34:20;6.68;;;2.95;;
49678;SDS011;35570;48.218;16.326;2023-10-08T06:36:48;7.47;;;2.97;;
49678;SDS011;35570;48.218;16.326;2023-10-08T06:39:19;10.65;;;3.38;;
49678;SDS011;35570;48.218;16.326;2023-10-08T06:41:58;6.95;;;2.92;;
49678;SDS011;35570;48.218;16.326;2023-10-08T06:44:24;5.72;;;3.25;;
49678;SDS011;35570;48.218;16.326;2023-10-08T06:46:51;11.18;;;3.10;;
49678;SDS011;35570;48.218;16.326;2023-10-08T06:49:21;8.10;;;2.85;;
49678;SDS011;35570;48.218;16.326;2023-10-08T06:51:51;9.35;;;3.15;;
49678;SDS011;35570;48.218;16.326;2023-10-08T06:54:18;9.23;;;2.88;;
49678;SDS011;35570;48.218;16.326;2023-10-08T06:56:44;6.68;;;2.95;;
49678;SDS011;35570;48.218;16.326;2023-10-08T06:59:17;6.18;;;3.28;;
49678;SDS011;35570;48.218;16.326;2023-10-08T07:01:43;5.88;;;3.17;;
49678;SDS011;35570;48.218;16.326;2023-10-08T07:04:16;6.90;;;3.37;;
49678;SDS011;35570;48.218;16.326;2023-10-08T07:06:43;8.48;;;3.28;;
49678;SDS011;35570;48.218;16.326;2023-10-08T07:09:11;10.43;;;3.08;;
49678;SDS011;35570;48.218;16.326;2023-10-08T07:11:53;7.40;;;3.05;;
49678;SDS011;35570;48.218;16.326;2023-10-08T07:14:23;7.78;;;3.05;;
49678;SDS011;35570;48.218;16.326;2023-10-08T07:16:52;9.90;;;3.22;;
49678;SDS011;35570;48.218;16.326;2023-10-08T07:19:25;8.38;;;3.30;;
49678;SDS011;35570;48.218;16.326;2023-10-08T07:22:04;11.40;;;3.33;;
49678;SDS011;35570;48.218;16.326;2023-10-08T07:24:43;7.18;;;3.10;;
49678;SDS011;35570;48.218;16.326;2023-10-08T07:27:11;6.43;;;2.97;;
49678;SDS011;35570;48.218;16.326;2023-10-08T07:29:36;7.03;;;3.42;;
49678;SDS011;35570;48.218;16.326;2023-10-08T07:32:02;6.20;;;2.95;;
49678;SDS011;35570;48.218;16.326;2023-10-08T07:34:37;8.75;;;3.15;;
49678;SDS011;35570;48.218;16.326;2023-10-08T07:37:04;10.77;;;3.38;;
49678;SDS011;35570;48.218;16.326;2023-10-08T07:39:31;7.95;;;3.08;;
49678;SDS011;35570;48.218;16.326;2023-10-08T07:41:58;6.00;;;3.08;;
49678;SDS011;35570;48.218;16.326;2023-10-08T07:44:30;9.75;;;3.20;;
49678;SDS011;35570;48.218;16.326;2023-10-08T07:46:57;4.75;;;2.83;;
49678;SDS011;35570;48.218;16.326;2023-10-08T07:49:27;10.82;;;3.20;;
49678;SDS011;35570;48.218;16.326;2023-10-08T07:51:55;6.32;;;3.13;;
49678;SDS011;35570;48.218;16.326;2023-10-08T07:54:25;7.40;;;3.00;;
49678;SDS011;35570;48.218;16.326;2023-10-08T07:56:54;9.27;;;3.42;;
49678;SDS011;35570;48.218;16.326;2023-10-08T07:59:43;6.47;;;3.17;;
49678;SDS011;35570;48.218;16.326;2023-10-08T08:02:14;6.43;;;3.05;;
49678;SDS011;35570;48.218;16.326;2023-10-08T08:04:42;6.65;;;2.90;;
49678;SDS011;35570;48.218;16.326;2023-10-08T08:07:10;11.10;;;3.08;;
49678;SDS011;35570;48.218;16.326;2023-10-08T08:09:43;7.82;;;3.15;;
49678;SDS011;35570;48.218;16.326;2023-10-08T08:12:16;8.05;;;3.20;;
49678;SDS011;35570;48.218;16.326;2023-10-08T08:14:42;7.57;;;3.10;;
49678;SDS011;35570;48.218;16.326;2023-10-08T08:17:08;7.43;;;3.10;;
49678;SDS011;35570;48.218;16.326;2023-10-08T08:19:43;6.50;;;2.90;;
49678;SDS011;35570;48.218;16.326;2023-10-08T08:22:12;5.25;;;3.15;;
49678;SDS011;35570;48.218;16.326;2023-10-08T08:24:45;5.28;;;2.90;;
49678;SDS011;35570;48.218;16.326;2023-10-08T08:27:21;9.50;;;3.38;;
49678;SDS011;35570;48.218;16.326;2023-10-08T08:29:52;8.65;;;3.22;;
49678;SDS011;35570;48.218;16.326;2023-10-08T08:32:22;9.98;;;3.72;;
49678;SDS011;35570;48.218;16.326;2023-10-08T08:34:48;7.22;;;3.55;;
49678;SDS011;35570;48.218;16.326;2023-10-08T08:37:17;7.53;;;3.50;;
49678;SDS011;35570;48.218;16.326;2023-10-08T08:39:43;8.07;;;3.80;;
49678;SDS011;35570;48.218;16.326;2023-10-08T08:42:10;10.45;;;3.42;;
49678;SDS011;35570;48.218;16.326;2023-10-08T08:44:37;7.63;;;3.70;;
49678;SDS011;35570;48.218;16.326;2023-10-08T08:47:12;8.98;;;3.72;;
49678;SDS011;35570;48.218;16.326;2023-10-08T08:49:44;7.47;;;3.22;;
49678;SDS011;35570;48.218;16.326;2023-10-08T08:52:10;7.40;;;3.50;;
49678;SDS011;35570;48.218;16.326;2023-10-08T08:54:37;9.55;;;3.70;;
49678;SDS011;35570;48.218;16.326;2023-10-08T08:57:10;6.80;;;3.72;;
49678;SDS011;35570;48.218;16.326;2023-10-08T08:59:48;7.13;;;3.08;;
49678;SDS011;35570;48.218;16.326;2023-10-08T09:02:20;8.00;;;3.25;;
49678;SDS011;35570;48.218;16.326;2023-10-08T09:04:47;12.63;;;3.05;;
49678;SDS011;35570;48.218;16.326;2023-10-08T09:07:14;6.70;;;2.17;;
49678;SDS011;35570;48.218;16.326;2023-10-08T09:09:40;6.28;;;1.98;;
49678;SDS011;35570;48.218;16.326;2023-10-08T09:12:06;6.20;;;1.55;;
49678;SDS011;35570;48.218;16.326;2023-10-08T09:14:35;6.03;;;1.30;;
49678;SDS011;35570;48.218;16.326;2023-10-08T09:17:03;6.30;;;1.50;;
49678;SDS011;35570;48.218;16.326;2023-10-08T09:19:30;2.63;;;1.10;;
49678;SDS011;35570;48.218;16.326;2023-10-08T09:22:08;4.70;;;1.55;;
49678;SDS011;35570;48.218;16.326;2023-10-08T09:24:37;3.45;;;1.63;;
49678;SDS011;35570;48.218;16.326;2023-10-08T09:27:04;6.88;;;1.45;;
49678;SDS011;35570;48.218;16.326;2023-10-08T09:29:35;5.10;;;2.65;;
49678;SDS011;35570;48.218;16.326;2023-10-08T09:32:05;4.63;;;2.50;;
49678;SDS011;35570;48.218;16.326;2023-10-08T09:34:33;7.25;;;2.28;;
49678;SDS011;35570;48.218;16.326;2023-10-08T09:36:59;3.17;;;1.38;;
49678;SDS011;35570;48.218;16.326;2023-10-08T09:39:26;2.38;;;1.52;;
49678;SDS011;35570;48.218;16.326;2023-10-08T09:42:02;2.95;;;1.50;;
49678;SDS011;35570;48.218;16.326;2023-10-08T09:44:29;3.65;;;1.20;;
49678;SDS011;35570;48.218;16.326;2023-10-08T09:47:05;3.10;;;1.00;;
49678;SDS011;35570;48.218;16.326;2023-10-08T09:49:33;2.33;;;0.90;;
49678;SDS011;35570;48.218;16.326;2023-10-08T09:52:07;3.50;;;1.25;;
49678;SDS011;35570;48.218;16.326;2023-10-08T09:59:35;4.43;;;0.70;;
49678;SDS011;35570;48.218;16.326;2023-10-08T10:02:03;0.98;;;0.45;;
49678;SDS011;35570;48.218;16.326;2023-10-08T10:04:30;1.52;;;0.40;;
49678;SDS011;35570;48.218;16.326;2023-10-08T10:07:07;3.33;;;0.93;;
49678;SDS011;35570;48.218;16.326;2023-10-08T10:09:45;1.33;;;0.70;;
49678;SDS011;35570;48.218;16.326;2023-10-08T10:12:20;1.58;;;0.70;;
49678;SDS011;35570;48.218;16.326;2023-10-08T10:14:52;1.30;;;0.65;;
49678;SDS011;35570;48.218;16.326;2023-10-08T10:17:20;3.38;;;0.80;;
49678;SDS011;35570;48.218;16.326;2023-10-08T10:19:54;3.05;;;1.00;;
49678;SDS011;35570;48.218;16.326;2023-10-08T10:22:31;1.77;;;1.00;;
49678;SDS011;35570;48.218;16.326;2023-10-08T10:24:59;2.05;;;1.15;;
49678;SDS011;35570;48.218;16.326;2023-10-08T10:27:28;1.98;;;1.13;;
49678;SDS011;35570;48.218;16.326;2023-10-08T10:30:00;1.55;;;0.80;;
49678;SDS011;35570;48.218;16.326;2023-10-08T10:32:34;1.40;;;0.40;;
49678;SDS011;35570;48.218;16.326;2023-10-08T10:35:00;1.02;;;0.40;;
49678;SDS011;35570;48.218;16.326;2023-10-08T10:37:29;2.45;;;0.43;;
49678;SDS011;35570;48.218;16.326;2023-10-08T10:40:06;1.63;;;0.47;;
49678;SDS011;35570;48.218;16.326;2023-10-08T10:42:36;2.25;;;0.40;;
49678;SDS011;35570;48.218;16.326;2023-10-08T10:45:12;3.25;;;1.30;;
49678;SDS011;35570;48.218;16.326;2023-10-08T10:47:59;1.63;;;1.20;;
49678;SDS011;35570;48.218;16.326;2023-10-08T10:50:37;3.30;;;1.05;;
49678;SDS011;35570;48.218;16.326;2023-10-08T10:53:14;1.27;;;0.63;;
49678;SDS011;35570;48.218;16.326;2023-10-08T10:55:43;0.60;;;0.50;;
49678;SDS011;35570;48.218;16.326;2023-10-08T10:58:25;1.00;;;0.63;;
49678;SDS011;35570;48.218;16.326;2023-10-08T11:00:53;1.25;;;0.60;;
49678;SDS011;35570;48.218;16.326;2023-10-08T11:03:23;0.95;;;0.60;;
49678;SDS011;35570;48.218;16.326;2023-10-08T11:05:58;0.80;;;0.30;;
49678;SDS011;35570;48.218;16.326;2023-10-08T11:08:25;0.40;;;0.30;;
49678;SDS011;35570;48.218;16.326;2023-10-08T11:10:59;0.80;;;0.40;;
49678;SDS011;35570;48.218;16.326;2023-10-08T11:13:30;1.52;;;0.52;;
49678;SDS011;35570;48.218;16.326;2023-10-08T11:16:03;0.95;;;0.57;;
49678;SDS011;35570;48.218;16.326;2023-10-08T11:18:30;4.07;;;0.60;;
49678;SDS011;35570;48.218;16.326;2023-10-08T11:21:07;1.85;;;1.27;;
49678;SDS011;35570;48.218;16.326;2023-10-08T11:23:48;2.17;;;0.90;;
49678;SDS011;35570;48.218;16.326;2023-10-08T11:26:36;1.42;;;0.70;;
49678;SDS011;35570;48.218;16.326;2023-10-08T11:29:19;0.85;;;0.20;;
49678;SDS011;35570;48.218;16.326;2023-10-08T11:31:51;3.05;;;0.52;;
49678;SDS011;35570;48.218;16.326;2023-10-08T11:34:16;0.40;;;0.22;;
49678;SDS011;35570;48.218;16.326;2023-10-08T11:36:52;0.38;;;0.20;;
49678;SDS011;35570;48.218;16.326;2023-10-08T11:39:20;4.70;;;0.40;;
49678;SDS011;35570;48.218;16.326;2023-10-08T11:41:56;1.73;;;1.10;;
49678;SDS011;35570;48.218;16.326;2023-10-08T11:44:27;2.08;;;1.00;;
49678;SDS011;35570;48.218;16.326;2023-10-08T11:46:55;1.40;;;1.25;;
49678;SDS011;35570;48.218;16.326;2023-10-08T11:49:29;1.25;;;0.90;;
49678;SDS011;35570;48.218;16.326;2023-10-08T11:52:01;1.10;;;0.57;;
49678;SDS011;35570;48.218;16.326;2023-10-08T11:54:27;0.90;;;0.40;;
49678;SDS011;35570;48.218;16.326;2023-10-08T11:56:53;1.35;;;0.50;;
49678;SDS011;35570;48.218;16.326;2023-10-08T11:59:20;1.33;;;0.50;;
49678;SDS011;35570;48.218;16.326;2023-10-08T12:01:49;0.70;;;0.30;;
49678;SDS011;35570;48.218;16.326;2023-10-08T12:04:16;0.40;;;0.30;;
49678;SDS011;35570;48.218;16.326;2023-10-08T12:06:42;0.88;;;0.20;;
49678;SDS011;35570;48.218;16.326;2023-10-08T12:09:12;0.40;;;0.25;;
49678;SDS011;35570;48.218;16.326;2023-10-08T12:11:39;1.13;;;0.47;;
49678;SDS011;35570;48.218;16.326;2023-10-08T12:14:05;0.88;;;0.60;;
49678;SDS011;35570;48.218;16.326;2023-10-08T12:16:31;0.77;;;0.50;;
49678;SDS011;35570;48.218;16.326;2023-10-08T12:19:00;1.08;;;0.52;;
49678;SDS011;35570;48.218;16.326;2023-10-08T12:21:27;2.47;;;1.08;;
49678;SDS011;35570;48.218;16.326;2023-10-08T12:24:00;1.77;;;0.65;;
49678;SDS011;35570;48.218;16.326;2023-10-08T12:26:30;0.70;;;0.50;;
49678;SDS011;35570;48.218;16.326;2023-10-08T12:28:56;0.60;;;0.20;;
49678;SDS011;35570;48.218;16.326;2023-10-08T12:31:22;1.25;;;0.50;;
49678;SDS011;35570;48.218;16.326;2023-10-08T12:33:49;1.35;;;0.70;;
49678;SDS011;35570;48.218;16.326;2023-10-08T12:36:20;3.53;;;0.73;;
49678;SDS011;35570;48.218;16.326;2023-10-08T12:38:48;1.95;;;0.60;;
49678;SDS011;35570;48.218;16.326;2023-10-08T12:41:14;1.92;;;0.60;;
49678;SDS011;35570;48.218;16.326;2023-10-08T12:43:42;1.70;;;0.68;;
49678;SDS011;35570;48.218;16.326;2023-10-08T12:46:11;2.78;;;1.10;;
49678;SDS011;35570;48.218;16.326;2023-10-08T12:48:57;2.33;;;1.00;;
49678;SDS011;35570;48.218;16.326;2023-10-08T12:51:26;3.33;;;0.82;;
49678;SDS011;35570;48.218;16.326;2023-10-08T12:53:56;2.80;;;0.82;;
49678;SDS011;35570;48.218;16.326;2023-10-08T12:56:31;2.00;;;0.85;;
49678;SDS011;35570;48.218;16.326;2023-10-08T12:59:01;4.10;;;1.50;;
49678;SDS011;35570;48.218;16.326;2023-10-08T13:01:32;1.10;;;0.80;;
49678;SDS011;35570;48.218;16.326;2023-10-08T13:04:01;3.03;;;0.90;;
49678;SDS011;35570;48.218;16.326;2023-10-08T13:06:32;1.77;;;1.00;;
49678;SDS011;35570;48.218;16.326;2023-10-08T13:09:03;1.83;;;1.20;;
49678;SDS011;35570;48.218;16.326;2023-10-08T13:11:39;1.45;;;1.00;;
49678;SDS011;35570;48.218;16.326;2023-10-08T13:14:05;2.63;;;0.93;;
49678;SDS011;35570;48.218;16.326;2023-10-08T13:16:32;2.75;;;1.25;;
49678;SDS011;35570;48.218;16.326;2023-10-08T13:19:02;1.95;;;1.00;;
49678;SDS011;35570;48.218;16.326;2023-10-08T13:21:30;2.65;;;1.15;;
49678;SDS011;35570;48.218;16.326;2023-10-08T13:23:58;1.70;;;1.00;;
49678;SDS011;35570;48.218;16.326;2023-10-08T13:26:25;4.22;;;1.40;;
49678;SDS011;35570;48.218;16.326;2023-10-08T13:28:56;3.63;;;1.30;;
49678;SDS011;35570;48.218;16.326;2023-10-08T13:31:26;2.83;;;1.30;;
49678;SDS011;35570;48.218;16.326;2023-10-08T13:33:54;2.25;;;1.20;;
49678;SDS011;35570;48.218;16.326;2023-10-08T13:36:23;2.05;;;0.82;;
49678;SDS011;35570;48.218;16.326;2023-10-08T13:38:50;3.15;;;1.10;;
49678;SDS011;35570;48.218;16.326;2023-10-08T13:41:17;4.78;;;1.58;;
49678;SDS011;35570;48.218;16.326;2023-10-08T13:43:44;3.35;;;1.48;;
49678;SDS011;35570;48.218;16.326;2023-10-08T13:46:16;3.72;;;1.30;;
49678;SDS011;35570;48.218;16.326;2023-10-08T13:48:44;4.57;;;1.52;;
49678;SDS011;35570;48.218;16.326;2023-10-08T13:51:13;3.35;;;1.70;;
49678;SDS011;35570;48.218;16.326;2023-10-08T13:53:52;4.05;;;2.05;;
49678;SDS011;35570;48.218;16.326;2023-10-08T13:56:25;2.53;;;1.50;;
49678;SDS011;35570;48.218;16.326;2023-10-08T13:58:56;2.33;;;1.48;;
49678;SDS011;35570;48.218;16.326;2023-10-08T14:01:37;2.13;;;1.50;;
49678;SDS011;35570;48.218;16.326;2023-10-08T14:04:12;5.75;;;1.60;;
49678;SDS011;35570;48.218;16.326;2023-10-08T14:06:46;4.05;;;1.55;;
49678;SDS011;35570;48.218;16.326;2023-10-08T14:09:20;4.65;;;1.58;;
49678;SDS011;35570;48.218;16.326;2023-10-08T14:11:48;3.70;;;1.30;;
49678;SDS011;35570;48.218;16.326;2023-10-08T14:14:20;5.32;;;1.73;;
49678;SDS011;35570;48.218;16.326;2023-10-08T14:16:49;3.22;;;1.88;;
49678;SDS011;35570;48.218;16.326;2023-10-08T14:19:19;3.55;;;1.90;;
49678;SDS011;35570;48.218;16.326;2023-10-08T14:21:54;4.35;;;1.80;;
49678;SDS011;35570;48.218;16.326;2023-10-08T14:24:26;2.13;;;1.45;;
49678;SDS011;35570;48.218;16.326;2023-10-08T14:26:56;3.47;;;1.60;;
49678;SDS011;35570;48.218;16.326;2023-10-08T14:29:29;4.85;;;1.77;;
49678;SDS011;35570;48.218;16.326;2023-10-08T14:32:00;8.10;;;3.20;;
49678;SDS011;35570;48.218;16.326;2023-10-08T14:34:27;6.28;;;3.08;;
49678;SDS011;35570;48.218;16.326;2023-10-08T14:37:11;7.15;;;2.33;;
49678;SDS011;35570;48.218;16.326;2023-10-08T14:39:56;3.78;;;1.67;;
49678;SDS011;35570;48.218;16.326;2023-10-08T14:42:41;4.57;;;1.50;;
49678;SDS011;35570;48.218;16.326;2023-10-08T14:45:31;3.75;;;1.58;;
49678;SDS011;35570;48.218;16.326;2023-10-08T14:48:01;4.65;;;1.70;;
49678;SDS011;35570;48.218;16.326;2023-10-08T14:50:28;2.60;;;1.30;;
49678;SDS011;35570;48.218;16.326;2023-10-08T14:52:58;4.47;;;1.67;;
49678;SDS011;35570;48.218;16.326;2023-10-08T14:55:27;6.60;;;1.77;;
49678;SDS011;35570;48.218;16.326;2023-10-08T14:57:55;3.33;;;1.80;;
49678;SDS011;35570;48.218;16.326;2023-10-08T15:00:22;3.72;;;1.58;;
49678;SDS011;35570;48.218;16.326;2023-10-08T15:02:52;3.03;;;1.67;;
49678;SDS011;35570;48.218;16.326;2023-10-08T15:05:20;5.80;;;1.58;;
49678;SDS011;35570;48.218;16.326;2023-10-08T15:07:51;5.72;;;2.08;;
49678;SDS011;35570;48.218;16.326;2023-10-08T15:10:18;3.25;;;1.67;;
49678;SDS011;35570;48.218;16.326;2023-10-08T15:12:47;3.13;;;1.45;;
49678;SDS011;35570;48.218;16.326;2023-10-08T15:15:14;4.28;;;1.65;;